Chestnut Hill, Connecticut
Current Conditions -  °F | °C
As of 10:52 AM on Sunday 23 Nov 2014 (Local Time) from KIJD Reporting Station
Clear Clear  
Wind Chill: 52°   Ceiling: Unl
Heat Index: 52°   Visibility: 10mi
Dew Point: 25°   Wind: 0mph
Humidity: 35%   Direction: NA
Pressure: 30.16"   Gusts: NA
Location:  41.7073°N, 72.2065°W
Report Text: KIJD 231552Z AUTO 00000KT 10SM CLR 11/M04 A3016 RMK AO2 SLP215 T01111039
Loading
Personal Weather Stations






























Interactive Weather Map New forecast layout! Learn more

10-Day Weather Forecast

Advertisements
Track Severe Weather on mobile